createdAt,value
2022-11-18T00:01:06.705Z,11.60
2022-11-18T00:03:33.556Z,12.17
2022-11-18T00:06:00.346Z,11.90
2022-11-18T00:08:27.132Z,11.57
2022-11-18T00:10:54.276Z,14.00
2022-11-18T00:13:40.017Z,13.48
2022-11-18T00:16:09.548Z,12.60
2022-11-18T00:18:37.244Z,11.98
2022-11-18T00:21:06.097Z,15.50
2022-11-18T00:23:33.288Z,13.32
2022-11-18T00:26:14.524Z,12.37
2022-11-18T00:28:42.079Z,12.90
2022-11-18T00:31:13.724Z,12.25
2022-11-18T00:33:41.309Z,12.13
2022-11-18T00:36:11.010Z,11.83
2022-11-18T00:38:38.413Z,11.40
2022-11-18T00:41:14.792Z,12.50
2022-11-18T00:43:42.432Z,12.05
2022-11-18T00:46:11.652Z,13.30
2022-11-18T00:48:39.455Z,15.30
2022-11-18T00:51:08.636Z,13.23
2022-11-18T00:53:35.488Z,12.83
2022-11-18T00:56:02.465Z,11.87
2022-11-18T00:58:30.272Z,12.77
2022-11-18T01:00:57.175Z,17.33
2022-11-18T01:03:28.698Z,14.63
2022-11-18T01:05:56.029Z,12.70
2022-11-18T01:08:23.085Z,13.53
2022-11-18T01:10:50.959Z,18.73
2022-11-18T01:13:20.279Z,13.30
2022-11-18T01:15:54.480Z,13.40
2022-11-18T01:18:24.137Z,15.87
2022-11-18T01:20:51.035Z,14.10
2022-11-18T01:23:19.361Z,13.80
2022-11-18T01:25:48.232Z,13.80
2022-11-18T01:28:21.794Z,16.33
2022-11-18T01:30:50.419Z,14.20
2022-11-18T01:33:17.279Z,14.10
2022-11-18T01:35:44.505Z,13.13
2022-11-18T01:38:14.051Z,14.50
2022-11-18T01:40:41.559Z,13.93
2022-11-18T01:43:14.458Z,13.37
2022-11-18T01:45:43.387Z,12.93
2022-11-18T01:48:21.256Z,13.33
2022-11-18T01:50:52.407Z,12.80
2022-11-18T01:53:25.746Z,12.90
2022-11-18T01:55:55.311Z,13.33
2022-11-18T01:58:29.149Z,13.40
2022-11-18T02:00:55.935Z,13.60
2022-11-18T02:03:23.676Z,12.60
2022-11-18T02:05:52.008Z,12.77
2022-11-18T02:08:19.300Z,13.00
2022-11-18T02:10:46.034Z,13.37
2022-11-18T02:13:13.492Z,14.07
2022-11-18T02:16:03.107Z,13.70
2022-11-18T02:18:32.973Z,13.77
2022-11-18T02:21:16.661Z,12.98
2022-11-18T02:24:30.878Z,12.90
2022-11-18T02:27:12.406Z,13.20
2022-11-18T02:29:48.628Z,12.73
2022-11-18T02:32:50.702Z,13.60
2022-11-18T02:35:32.041Z,13.10
2022-11-18T02:38:23.110Z,12.80
2022-11-18T02:40:55.734Z,12.40
2022-11-18T02:43:29.038Z,12.60
2022-11-18T02:46:01.833Z,15.53
2022-11-18T02:48:32.778Z,13.73
2022-11-18T02:51:02.062Z,13.27
2022-11-18T02:53:32.660Z,13.32
2022-11-18T02:56:01.949Z,13.50
2022-11-18T02:58:28.708Z,14.20
2022-11-18T03:00:57.555Z,13.27
2022-11-18T03:03:35.264Z,13.73
2022-11-18T03:06:20.291Z,12.43
2022-11-18T03:08:53.658Z,13.13
2022-11-18T03:11:24.186Z,13.40
2022-11-18T03:14:09.424Z,13.50
2022-11-18T03:16:50.961Z,13.07
2022-11-18T03:19:20.564Z,15.67
2022-11-18T03:22:01.535Z,13.63
2022-11-18T03:24:33.717Z,13.20
2022-11-18T03:27:33.733Z,13.13
2022-11-18T03:30:08.371Z,13.10
2022-11-18T03:32:40.673Z,12.60
2022-11-18T03:35:14.552Z,13.47
2022-11-18T03:37:42.930Z,12.50
2022-11-18T03:40:19.031Z,12.23
2022-11-18T03:42:50.694Z,12.20
2022-11-18T03:45:32.984Z,12.07
2022-11-18T03:48:17.069Z,13.27
2022-11-18T03:50:59.754Z,12.70
2022-11-18T03:53:30.604Z,12.50
2022-11-18T03:56:21.270Z,13.13
2022-11-18T03:59:01.959Z,12.67
2022-11-18T04:01:51.765Z,12.37
2022-11-18T04:04:19.413Z,11.85
2022-11-18T04:06:48.524Z,11.80
2022-11-18T04:09:20.821Z,12.40
2022-11-18T04:12:03.984Z,12.23
2022-11-18T04:14:36.952Z,12.37
2022-11-18T04:17:29.973Z,12.07
2022-11-18T04:19:56.868Z,12.57
2022-11-18T04:22:23.652Z,12.20
2022-11-18T04:24:50.501Z,12.53
2022-11-18T04:27:17.582Z,12.83
2022-11-18T04:29:44.429Z,13.27
2022-11-18T04:32:11.200Z,16.37
2022-11-18T04:34:38.037Z,15.77
2022-11-18T04:37:04.909Z,13.47
2022-11-18T04:39:31.656Z,12.83
2022-11-18T04:41:58.522Z,12.00
2022-11-18T04:44:30.684Z,11.93
2022-11-18T04:46:59.652Z,12.70
2022-11-18T04:49:27.333Z,13.13
2022-11-18T04:51:54.646Z,13.83
2022-11-18T04:54:21.904Z,12.93
2022-11-18T04:56:49.820Z,13.80
2022-11-18T04:59:20.871Z,13.10
2022-11-18T05:01:49.373Z,13.83
2022-11-18T05:04:19.364Z,13.30
2022-11-18T05:06:46.567Z,13.45
2022-11-18T05:09:13.759Z,13.53
2022-11-18T05:11:59.041Z,13.20
2022-11-18T05:14:30.679Z,13.33
2022-11-18T05:16:59.477Z,14.63
2022-11-18T05:19:26.631Z,13.33
2022-11-18T05:21:53.686Z,13.97
2022-11-18T05:24:21.054Z,12.97
2022-11-18T05:26:47.807Z,12.60
2022-11-18T05:29:15.029Z,13.30
2022-11-18T05:31:41.921Z,13.50
2022-11-18T05:34:08.671Z,12.93
2022-11-18T05:36:35.810Z,11.83
2022-11-18T05:39:03.749Z,12.50
2022-11-18T05:41:49.077Z,12.00
2022-11-18T05:44:16.254Z,11.30
2022-11-18T05:46:43.160Z,12.00
2022-11-18T05:49:10.084Z,12.53
2022-11-18T05:51:36.979Z,11.33
2022-11-18T05:54:07.756Z,12.43
2022-11-18T05:56:45.276Z,12.47
2022-11-18T05:59:12.944Z,12.00
2022-11-18T06:02:03.886Z,12.00
2022-11-18T06:04:39.943Z,11.80
2022-11-18T06:07:15.635Z,12.30
2022-11-18T06:09:45.281Z,12.17
2022-11-18T06:12:16.318Z,12.45
2022-11-18T06:14:56.913Z,12.80
2022-11-18T06:17:32.962Z,12.83
2022-11-18T06:20:00.097Z,13.50
2022-11-18T06:22:26.985Z,13.10
2022-11-18T06:24:54.218Z,13.27
2022-11-18T06:27:21.680Z,13.20
2022-11-18T06:29:48.398Z,12.83
2022-11-18T06:32:15.452Z,14.40
2022-11-18T06:34:42.309Z,13.13
2022-11-18T06:37:14.864Z,12.93
2022-11-18T06:39:41.676Z,13.33
2022-11-18T06:42:08.513Z,16.93
2022-11-18T06:44:35.363Z,14.07
2022-11-18T06:47:03.851Z,16.40
2022-11-18T06:49:30.678Z,14.53
2022-11-18T06:51:57.700Z,13.93
2022-11-18T06:54:24.473Z,16.07
2022-11-18T06:56:51.177Z,17.53
2022-11-18T06:59:24.064Z,15.70
2022-11-18T07:01:53.519Z,14.63
2022-11-18T07:04:20.950Z,15.30
2022-11-18T07:06:47.999Z,15.23
2022-11-18T07:09:15.005Z,16.53
2022-11-18T07:11:41.809Z,16.07
2022-11-18T07:14:09.824Z,16.60
2022-11-18T07:16:36.907Z,17.40
2022-11-18T07:19:12.901Z,18.43
2022-11-18T07:21:40.608Z,19.37
2022-11-18T07:24:09.934Z,18.47
2022-11-18T07:26:36.989Z,18.02
2022-11-18T07:29:04.568Z,18.40
2022-11-18T07:31:32.248Z,22.33
2022-11-18T07:33:59.161Z,22.23
2022-11-18T07:36:32.490Z,24.20
2022-11-18T07:39:03.919Z,20.43
2022-11-18T07:41:31.304Z,22.13
2022-11-18T07:44:01.447Z,20.60
2022-11-18T07:48:59.843Z,21.03
2022-11-18T07:51:29.094Z,22.10
2022-11-18T07:53:56.410Z,17.97
2022-11-18T07:56:23.629Z,17.70
2022-11-18T07:58:54.958Z,16.80
2022-11-18T08:01:25.137Z,16.60
2022-11-18T08:06:20.313Z,15.37
2022-11-18T08:08:47.448Z,20.47
2022-11-18T08:11:22.730Z,17.17
2022-11-18T08:13:51.520Z,16.43
2022-11-18T08:16:23.490Z,17.50
2022-11-18T08:18:50.838Z,15.23
2022-11-18T08:21:19.452Z,18.60
2022-11-18T08:23:54.521Z,20.05
2022-11-18T08:26:22.060Z,13.70
2022-11-18T08:28:49.333Z,14.50
2022-11-18T08:31:27.735Z,12.20
2022-11-18T08:33:58.298Z,14.27
2022-11-18T08:36:27.845Z,15.45
2022-11-18T08:38:59.671Z,15.50
2022-11-18T08:41:35.755Z,10.48
2022-11-18T08:44:03.239Z,10.35
2022-11-18T08:46:30.464Z,10.90
2022-11-18T08:48:58.160Z,11.90
2022-11-18T08:51:25.828Z,10.93
2022-11-18T08:53:52.678Z,13.48
2022-11-18T08:56:21.710Z,11.02
2022-11-18T08:58:48.439Z,10.10
2022-11-18T09:01:15.281Z,9.20
2022-11-18T09:03:42.515Z,9.15
2022-11-18T09:06:14.730Z,10.65
2022-11-18T09:08:42.541Z,11.48
2022-11-18T09:11:14.890Z,11.63
2022-11-18T09:14:14.258Z,11.70
2022-11-18T09:16:32.329Z,11.63
2022-11-18T09:19:13.093Z,12.75
2022-11-18T09:21:47.053Z,11.50
2022-11-18T09:24:13.953Z,11.77
2022-11-18T09:26:41.252Z,15.23
2022-11-18T09:29:08.740Z,10.57
2022-11-18T09:31:35.699Z,8.60
2022-11-18T09:34:02.448Z,8.18
2022-11-18T09:36:29.577Z,10.07
2022-11-18T09:38:56.465Z,8.63
2022-11-18T09:41:45.293Z,6.03
2022-11-18T09:45:02.797Z,7.22
2022-11-18T09:47:33.919Z,9.02
2022-11-18T09:50:26.608Z,9.35
2022-11-18T09:53:07.342Z,8.75
2022-11-18T09:55:38.674Z,10.40
2022-11-18T09:58:06.511Z,9.18
2022-11-18T10:00:34.305Z,11.00
2022-11-18T10:03:01.108Z,10.50
2022-11-18T10:05:36.965Z,10.70
2022-11-18T10:08:15.601Z,11.40
2022-11-18T10:11:00.465Z,11.32
2022-11-18T10:13:30.125Z,10.75
2022-11-18T10:16:17.277Z,10.68
2022-11-18T10:19:07.151Z,10.55
2022-11-18T10:22:01.323Z,10.32
2022-11-18T10:24:33.180Z,9.10
2022-11-18T10:27:00.685Z,10.10
2022-11-18T10:29:27.657Z,9.55
2022-11-18T10:32:08.615Z,10.40
2022-11-18T10:34:53.850Z,10.98
2022-11-18T10:37:39.048Z,9.73
2022-11-18T10:40:26.020Z,11.48
2022-11-18T10:45:23.311Z,9.32
2022-11-18T10:50:49.234Z,10.32
2022-11-18T10:53:37.205Z,9.85
2022-11-18T10:56:08.735Z,10.88
2022-11-18T10:58:43.575Z,9.40
2022-11-18T11:01:19.182Z,9.23
2022-11-18T11:04:03.215Z,10.60
2022-11-18T11:06:32.785Z,10.52
2022-11-18T11:14:03.647Z,10.52
2022-11-18T11:16:31.906Z,9.38
2022-11-18T11:19:02.502Z,11.05
2022-11-18T11:21:30.238Z,12.57
2022-11-18T11:23:57.221Z,10.80
2022-11-18T11:29:47.510Z,10.57
2022-11-18T11:32:43.917Z,12.25
2022-11-18T11:35:30.440Z,11.00
2022-11-18T11:38:06.598Z,10.73
2022-11-18T11:40:59.485Z,12.82
2022-11-18T11:43:56.634Z,10.52
2022-11-18T11:47:19.943Z,10.05
2022-11-18T11:50:12.941Z,10.65
2022-11-18T11:52:45.480Z,12.43
2022-11-18T11:55:31.209Z,10.40
2022-11-18T11:58:00.600Z,11.10
2022-11-18T12:02:58.488Z,12.32
2022-11-18T12:08:24.536Z,10.82
2022-11-18T12:10:54.376Z,10.27
2022-11-18T12:15:50.654Z,10.50
2022-11-18T12:18:42.194Z,10.98
2022-11-18T12:21:09.367Z,11.02
2022-11-18T12:23:36.207Z,9.98
2022-11-18T12:26:10.436Z,9.63
2022-11-18T12:28:44.023Z,10.43
2022-11-18T12:31:16.606Z,10.30
2022-11-18T12:33:55.627Z,9.73
2022-11-18T12:36:37.465Z,9.93
2022-11-18T12:39:36.359Z,9.32
2022-11-18T12:42:23.486Z,10.75
2022-11-18T12:44:52.825Z,10.05
2022-11-18T12:47:42.656Z,8.93
2022-11-18T12:52:37.893Z,12.05
2022-11-18T12:55:31.872Z,10.95
2022-11-18T12:57:58.683Z,10.57
2022-11-18T13:00:25.502Z,9.48
2022-11-18T13:02:57.463Z,9.75
2022-11-18T13:05:25.844Z,9.32
2022-11-18T13:08:16.783Z,9.38
2022-11-18T13:10:43.416Z,9.30
2022-11-18T13:13:27.173Z,9.07
2022-11-18T13:16:14.661Z,9.43
2022-11-18T13:18:52.433Z,8.98
2022-11-18T13:21:46.993Z,8.90
2022-11-18T13:24:16.091Z,8.93
2022-11-18T13:26:45.886Z,8.70
2022-11-18T13:29:13.703Z,8.85
2022-11-18T13:32:08.737Z,8.57
2022-11-18T13:34:47.289Z,9.18
2022-11-18T13:37:29.662Z,9.65
2022-11-18T13:39:57.581Z,8.75
2022-11-18T13:42:28.401Z,8.80
2022-11-18T13:44:59.849Z,8.77
2022-11-18T13:47:40.128Z,8.05
2022-11-18T13:50:31.864Z,8.45
2022-11-18T13:53:13.834Z,8.50
2022-11-18T13:55:57.873Z,10.52
2022-11-18T13:58:49.688Z,8.60
2022-11-18T14:01:29.393Z,7.97
2022-11-18T14:03:58.826Z,8.00
2022-11-18T14:06:26.490Z,9.07
2022-11-18T14:09:19.139Z,8.73
2022-11-18T14:12:23.828Z,8.93
2022-11-18T14:14:50.592Z,8.82
2022-11-18T14:17:24.700Z,9.57
2022-11-18T14:19:56.676Z,9.55
2022-11-18T14:22:28.784Z,8.10
2022-11-18T14:24:58.621Z,8.50
2022-11-18T14:27:29.358Z,9.40
2022-11-18T14:29:56.310Z,11.38
2022-11-18T14:32:23.578Z,8.57
2022-11-18T14:35:00.789Z,8.90
2022-11-18T14:37:27.942Z,9.50
2022-11-18T14:39:56.405Z,11.88
2022-11-18T14:42:23.918Z,10.32
2022-11-18T14:44:51.227Z,9.23
2022-11-18T14:47:28.622Z,8.90
2022-11-18T14:49:55.813Z,8.50
2022-11-18T14:52:22.511Z,8.15
2022-11-18T14:54:49.307Z,8.27
2022-11-18T14:57:17.428Z,8.20
2022-11-18T14:59:44.168Z,9.30
2022-11-18T15:02:16.272Z,9.35
2022-11-18T15:04:43.332Z,9.90
2022-11-18T15:07:18.525Z,10.07
2022-11-18T15:09:49.755Z,12.38
2022-11-18T15:12:16.618Z,12.65
2022-11-18T15:14:43.503Z,11.90
2022-11-18T15:17:12.440Z,11.82
2022-11-18T15:19:40.913Z,13.90
2022-11-18T15:22:08.082Z,10.93
2022-11-18T15:24:34.782Z,11.05
2022-11-18T15:27:05.511Z,14.80
2022-11-18T15:29:32.543Z,11.50
2022-11-18T15:32:00.252Z,11.88
2022-11-18T15:34:27.210Z,11.90
2022-11-18T15:36:53.966Z,11.43
2022-11-18T15:39:20.783Z,11.70
2022-11-18T15:41:47.598Z,12.07
2022-11-18T15:44:16.231Z,11.80
2022-11-18T15:46:45.501Z,11.80
2022-11-18T15:49:14.602Z,11.52
2022-11-18T15:51:41.598Z,11.83
2022-11-18T15:54:08.349Z,12.57
2022-11-18T15:56:35.300Z,11.10
2022-11-18T15:59:07.527Z,11.00
2022-11-18T16:01:36.833Z,10.93
2022-11-18T16:04:05.225Z,12.32
2022-11-18T16:06:32.962Z,14.30
2022-11-18T16:09:00.661Z,11.60
2022-11-18T16:11:47.966Z,11.63
2022-11-18T16:14:17.396Z,11.10
2022-11-18T16:16:45.795Z,11.18
2022-11-18T16:19:14.744Z,11.67
2022-11-18T16:21:44.293Z,10.20
2022-11-18T16:24:13.532Z,10.25
2022-11-18T16:26:40.395Z,11.73
2022-11-18T16:29:08.101Z,11.63
2022-11-18T16:31:41.277Z,9.90
2022-11-18T16:34:28.424Z,9.47
2022-11-18T16:36:57.766Z,9.93
2022-11-18T16:39:27.302Z,10.20
2022-11-18T16:41:59.418Z,10.13
2022-11-18T16:44:29.191Z,9.60
2022-11-18T16:46:57.660Z,12.15
2022-11-18T16:49:26.344Z,9.23
2022-11-18T16:51:55.110Z,10.97
2022-11-18T16:54:31.151Z,10.40
2022-11-18T16:56:59.452Z,11.47
2022-11-18T16:59:28.659Z,11.27
2022-11-18T17:01:57.292Z,10.40
2022-11-18T17:04:25.684Z,10.13
2022-11-18T17:06:53.412Z,11.90
2022-11-18T17:09:22.562Z,12.97
2022-11-18T17:11:50.736Z,12.65
2022-11-18T17:14:17.958Z,15.00
2022-11-18T17:16:44.705Z,17.50
2022-11-18T17:19:16.846Z,13.33
2022-11-18T17:21:44.654Z,12.03
2022-11-18T17:24:14.066Z,12.40
2022-11-18T17:26:41.660Z,11.10
2022-11-18T17:29:11.576Z,13.93
2022-11-18T17:31:39.546Z,11.00
2022-11-18T17:34:06.475Z,10.83
2022-11-18T17:36:33.417Z,11.10
2022-11-18T17:39:00.976Z,11.03
2022-11-18T17:41:47.214Z,10.97
2022-11-18T17:44:16.400Z,11.93
2022-11-18T17:46:43.573Z,13.43
2022-11-18T17:49:18.323Z,13.43
2022-11-18T17:51:46.277Z,10.87
2022-11-18T17:54:13.371Z,11.00
2022-11-18T17:56:40.328Z,11.43
2022-11-18T17:59:07.601Z,11.00
2022-11-18T18:01:34.504Z,10.07
2022-11-18T18:04:01.410Z,10.47
2022-11-18T18:06:28.119Z,11.00
2022-11-18T18:08:56.669Z,10.80
2022-11-18T18:11:23.818Z,13.13
2022-11-18T18:14:09.113Z,13.10
2022-11-18T18:16:36.192Z,10.50
2022-11-18T18:19:05.199Z,13.13
2022-11-18T18:21:32.720Z,11.90
2022-11-18T18:24:00.188Z,15.50
2022-11-18T18:26:31.532Z,12.57
2022-11-18T18:29:00.143Z,12.50
2022-11-18T18:31:27.593Z,11.03
2022-11-18T18:33:54.613Z,10.10
2022-11-18T18:36:21.864Z,11.03
2022-11-18T18:38:48.647Z,11.77
2022-11-18T18:41:21.107Z,13.10
2022-11-18T18:43:48.669Z,10.93
2022-11-18T18:46:33.535Z,10.10
2022-11-18T18:49:04.791Z,10.50
2022-11-18T18:51:37.586Z,12.20
2022-11-18T18:54:05.332Z,11.27
2022-11-18T18:56:32.999Z,12.63
2022-11-18T18:59:00.518Z,11.60
2022-11-18T19:01:28.280Z,12.50
2022-11-18T19:04:00.375Z,12.40
2022-11-18T19:06:55.020Z,15.90
2022-11-18T19:09:19.476Z,14.67
2022-11-18T19:12:05.341Z,17.20
2022-11-18T19:14:33.683Z,15.40
2022-11-18T19:17:05.035Z,12.40
2022-11-18T19:19:55.569Z,13.27
2022-11-18T19:22:22.746Z,15.23
2022-11-18T19:27:38.987Z,12.93
2022-11-18T19:30:10.086Z,11.63
2022-11-18T19:32:42.160Z,12.10
2022-11-18T19:35:09.733Z,10.93
2022-11-18T19:37:36.792Z,51.43
2022-11-18T19:40:08.904Z,70.53
2022-11-18T19:42:37.807Z,15.57
2022-11-18T19:45:06.428Z,13.17
2022-11-18T19:47:33.774Z,11.37
2022-11-18T19:50:00.524Z,11.30
2022-11-18T19:52:27.599Z,11.77
2022-11-18T19:54:54.986Z,10.70
2022-11-18T19:57:22.135Z,11.43
2022-11-18T19:59:48.939Z,11.90
2022-11-18T20:02:15.763Z,11.63
2022-11-18T20:05:02.491Z,11.30
2022-11-18T20:07:29.882Z,11.50
2022-11-18T20:09:56.657Z,11.70
2022-11-18T20:12:23.645Z,11.60
2022-11-18T20:14:50.430Z,11.47
2022-11-18T20:17:17.131Z,11.17
2022-11-18T20:19:43.929Z,13.63
2022-11-18T20:22:10.738Z,11.83
2022-11-18T20:24:37.443Z,10.70
2022-11-18T20:27:04.592Z,11.30
2022-11-18T20:29:31.298Z,11.67
2022-11-18T20:31:57.970Z,13.77
2022-11-18T20:34:24.766Z,12.97
2022-11-18T20:36:54.659Z,12.03
2022-11-18T20:39:21.976Z,11.32
2022-11-18T20:42:07.444Z,14.73
2022-11-18T20:44:34.148Z,11.07
2022-11-18T20:47:00.834Z,12.00
2022-11-18T20:49:27.743Z,12.20
2022-11-18T20:51:54.472Z,12.10
2022-11-18T20:54:21.159Z,12.10
2022-11-18T20:56:47.906Z,11.90
2022-11-18T20:59:14.595Z,12.40
2022-11-18T21:01:41.433Z,13.10
2022-11-18T21:04:11.246Z,12.00
2022-11-18T21:06:38.614Z,11.90
2022-11-18T21:09:06.605Z,13.40
2022-11-18T21:11:35.031Z,16.37
2022-11-18T21:14:24.570Z,14.40
2022-11-18T21:17:00.833Z,12.27
2022-11-18T21:19:28.800Z,13.43
2022-11-18T21:21:56.496Z,11.63
2022-11-18T21:24:27.781Z,12.40
2022-11-18T21:26:55.389Z,10.97
2022-11-18T21:29:25.921Z,12.00
2022-11-18T21:31:53.700Z,10.17
2022-11-18T21:34:20.995Z,11.23
2022-11-18T21:36:53.159Z,10.63
2022-11-18T21:39:22.708Z,10.30
2022-11-18T21:41:55.176Z,11.37
2022-11-18T21:44:24.057Z,10.53
2022-11-18T21:46:50.835Z,11.23
2022-11-18T21:49:17.841Z,10.60
2022-11-18T21:51:45.355Z,11.47
2022-11-18T21:54:13.058Z,11.73
2022-11-18T21:56:39.755Z,11.10
2022-11-18T21:59:07.875Z,13.10
2022-11-18T22:01:35.133Z,11.73
2022-11-18T22:04:04.381Z,12.10
2022-11-18T22:06:34.026Z,12.50
2022-11-18T22:09:02.709Z,12.20
2022-11-18T22:11:29.674Z,11.80
2022-11-18T22:13:56.797Z,13.27
2022-11-18T22:16:25.155Z,17.63
2022-11-18T22:18:59.976Z,13.33
2022-11-18T22:21:28.183Z,13.73
2022-11-18T22:24:00.148Z,14.10
2022-11-18T22:26:28.483Z,13.50
2022-11-18T22:28:57.319Z,15.73
2022-11-18T22:31:26.680Z,12.43
2022-11-18T22:33:55.713Z,13.43
2022-11-18T22:36:24.895Z,16.73
2022-11-18T22:38:51.984Z,13.57
2022-11-18T22:41:39.862Z,14.13
2022-11-18T22:44:08.476Z,13.83
2022-11-18T22:46:36.868Z,13.43
2022-11-18T22:49:04.705Z,13.07
2022-11-18T22:51:31.930Z,12.07
2022-11-18T22:56:45.521Z,13.03
2022-11-18T22:59:12.851Z,13.23
2022-11-18T23:01:39.886Z,13.97
2022-11-18T23:04:07.211Z,13.50
2022-11-18T23:06:34.359Z,12.57
2022-11-18T23:09:01.069Z,14.10
2022-11-18T23:11:46.573Z,14.80
2022-11-18T23:14:13.458Z,14.77
2022-11-18T23:16:41.990Z,14.00
2022-11-18T23:19:14.909Z,14.87
2022-11-18T23:21:43.362Z,17.57
2022-11-18T23:24:14.989Z,17.77
2022-11-18T23:26:42.368Z,21.20
2022-11-18T23:29:10.915Z,16.43
2022-11-18T23:31:43.030Z,17.97
2022-11-18T23:34:12.760Z,16.20
2022-11-18T23:36:39.962Z,17.73
2022-11-18T23:39:06.834Z,18.30
2022-11-18T23:41:33.665Z,15.83
2022-11-18T23:44:00.650Z,16.37
2022-11-18T23:46:27.946Z,16.13
2022-11-18T23:48:55.054Z,15.57
2022-11-18T23:51:23.850Z,17.70
2022-11-18T23:53:56.287Z,14.97
2022-11-18T23:56:25.435Z,15.50
2022-11-18T23:58:53.807Z,15.83
